createdAt,value
2018-10-03T00:02:15.433Z,98922.65
2018-10-03T00:04:44.098Z,98922.61
2018-10-03T00:07:12.645Z,98919.61
2018-10-03T00:09:41.079Z,98916.80
2018-10-03T00:12:09.568Z,98925.16
2018-10-03T00:14:37.898Z,98926.05
2018-10-03T00:17:06.390Z,98932.52
2018-10-03T00:19:35.038Z,98929.77
2018-10-03T00:22:03.316Z,98932.91
2018-10-03T00:24:31.698Z,98939.83
2018-10-03T00:26:59.995Z,98923.10
2018-10-03T00:29:28.338Z,98937.19
2018-10-03T00:31:56.665Z,98938.61
2018-10-03T00:34:25.166Z,98945.00
2018-10-03T00:36:53.425Z,98948.66
2018-10-03T00:39:21.733Z,98947.43
2018-10-03T00:41:50.028Z,98948.02
2018-10-03T00:44:18.392Z,98948.18
2018-10-03T00:46:46.729Z,98943.13
2018-10-03T00:49:15.024Z,98947.69
2018-10-03T00:51:43.421Z,98947.00
2018-10-03T00:54:11.898Z,98947.95
2018-10-03T00:56:40.208Z,98935.88
2018-10-03T00:59:08.603Z,98935.63
2018-10-03T01:01:36.860Z,98937.52
2018-10-03T01:04:05.203Z,98941.72
2018-10-03T01:06:33.495Z,98935.37
2018-10-03T01:09:01.816Z,98945.69
2018-10-03T01:11:30.171Z,98948.40
2018-10-03T01:13:58.631Z,98945.97
2018-10-03T01:16:26.949Z,98932.56
2018-10-03T01:18:55.279Z,98934.35
2018-10-03T01:21:23.661Z,98933.15
2018-10-03T01:23:51.970Z,98936.59
2018-10-03T01:26:20.256Z,98931.84
2018-10-03T01:28:48.588Z,98926.20
2018-10-03T01:31:16.937Z,98924.16
2018-10-03T01:33:45.292Z,98924.56
2018-10-03T01:36:13.597Z,98922.09
2018-10-03T01:38:41.994Z,98919.46
2018-10-03T01:41:10.343Z,98917.34
2018-10-03T01:43:38.653Z,98912.77
2018-10-03T01:46:07.098Z,98913.84
2018-10-03T01:48:35.806Z,98913.92
2018-10-03T01:51:04.164Z,98909.88
2018-10-03T01:53:32.512Z,98917.56
2018-10-03T01:56:00.881Z,98923.47
2018-10-03T01:58:29.368Z,98922.59
2018-10-03T02:00:57.668Z,98926.26
2018-10-03T02:03:25.962Z,98930.45
2018-10-03T02:05:54.354Z,98912.33
2018-10-03T02:08:22.677Z,98923.03
2018-10-03T02:10:51.029Z,98914.02
2018-10-03T02:13:19.368Z,98918.45
2018-10-03T02:15:47.713Z,98926.23
2018-10-03T02:18:16.266Z,98923.15
2018-10-03T02:20:44.615Z,98934.30
2018-10-03T02:23:13.012Z,98936.00
2018-10-03T02:25:41.392Z,98943.33
2018-10-03T02:28:09.661Z,98934.75
2018-10-03T02:30:37.966Z,98930.42
2018-10-03T02:33:06.279Z,98930.02
2018-10-03T02:35:34.610Z,98929.61
2018-10-03T02:38:02.978Z,98933.73
2018-10-03T02:40:31.367Z,98933.48
2018-10-03T02:42:59.730Z,98930.34
2018-10-03T02:45:28.028Z,98935.30
2018-10-03T02:47:56.343Z,98934.73
2018-10-03T02:50:24.779Z,98930.03
2018-10-03T02:52:53.098Z,98929.70
2018-10-03T02:55:21.407Z,98935.27
2018-10-03T02:57:49.700Z,98938.59
2018-10-03T03:00:18.192Z,98940.16
2018-10-03T03:02:46.594Z,98936.43
2018-10-03T03:05:15.956Z,98936.75
2018-10-03T03:07:44.276Z,98931.51
2018-10-03T03:10:12.748Z,98930.80
2018-10-03T03:12:41.053Z,98926.69
2018-10-03T03:15:09.479Z,98928.13
2018-10-03T03:17:37.840Z,98941.45
2018-10-03T03:20:06.271Z,98941.80
2018-10-03T03:22:34.557Z,98934.30
2018-10-03T03:25:02.975Z,98935.03
2018-10-03T03:27:31.480Z,98938.22
2018-10-03T03:29:59.736Z,98948.24
2018-10-03T03:32:28.448Z,98948.33
2018-10-03T03:34:56.761Z,98943.27
2018-10-03T03:37:25.217Z,98951.44
2018-10-03T03:39:53.696Z,98944.13
2018-10-03T03:42:22.182Z,98936.21
2018-10-03T03:44:50.855Z,98932.95
2018-10-03T03:47:19.181Z,98936.98
2018-10-03T03:49:47.447Z,98944.33
2018-10-03T03:52:15.807Z,98945.20
2018-10-03T03:54:44.080Z,98950.19
2018-10-03T03:57:12.559Z,98948.84
2018-10-03T03:59:42.125Z,98951.36
2018-10-03T04:02:10.426Z,98953.91
2018-10-03T04:04:38.786Z,98952.13
2018-10-03T04:07:07.253Z,98945.83
2018-10-03T04:09:36.075Z,98954.27
2018-10-03T04:12:04.428Z,98950.48
2018-10-03T04:14:32.729Z,98963.70
2018-10-03T04:17:01.007Z,98960.55
2018-10-03T04:19:29.270Z,98965.37
2018-10-03T04:21:57.587Z,98963.99
2018-10-03T04:24:25.964Z,98960.58
2018-10-03T04:26:54.381Z,98968.75
2018-10-03T04:29:22.717Z,98967.92
2018-10-03T04:31:51.071Z,98970.50
2018-10-03T04:34:19.553Z,98972.24
2018-10-03T04:36:47.962Z,98970.19
2018-10-03T04:39:16.400Z,98975.98
2018-10-03T04:41:44.878Z,98971.91
2018-10-03T04:44:13.192Z,98960.13
2018-10-03T04:46:41.520Z,98959.96
2018-10-03T04:49:10.105Z,98954.38
2018-10-03T04:51:38.355Z,98956.09
2018-10-03T04:54:06.872Z,98940.36
2018-10-03T04:56:35.146Z,98940.78
2018-10-03T04:59:03.548Z,98946.28
2018-10-03T05:01:31.977Z,98949.56
2018-10-03T05:04:00.324Z,98955.47
2018-10-03T05:06:28.858Z,98958.11
2018-10-03T05:08:57.402Z,98967.58
2018-10-03T05:11:25.939Z,98969.20
2018-10-03T05:13:54.404Z,98968.11
2018-10-03T05:16:22.780Z,98977.58
2018-10-03T05:18:51.100Z,98981.95
2018-10-03T05:21:19.652Z,98991.11
2018-10-03T05:23:48.231Z,98986.97
2018-10-03T05:26:17.341Z,98992.73
2018-10-03T05:28:45.637Z,98997.64
2018-10-03T05:31:14.080Z,99005.16
2018-10-03T05:33:42.466Z,99011.67
2018-10-03T05:36:10.810Z,99020.23
2018-10-03T05:38:39.349Z,99022.02
2018-10-03T05:41:07.676Z,99025.65
2018-10-03T05:43:35.987Z,99031.80
2018-10-03T05:46:04.371Z,99029.88
2018-10-03T05:48:32.665Z,99030.94
2018-10-03T05:51:00.886Z,99032.63
2018-10-03T05:53:29.202Z,99035.33
2018-10-03T05:55:57.524Z,99034.97
2018-10-03T05:58:25.860Z,99035.91
2018-10-03T06:00:54.285Z,99040.99
2018-10-03T06:03:22.760Z,99037.85
2018-10-03T06:05:51.021Z,99030.94
2018-10-03T06:08:19.419Z,99045.37
2018-10-03T06:10:47.819Z,99041.58
2018-10-03T06:13:16.220Z,99045.45
2018-10-03T06:15:44.928Z,99048.71
2018-10-03T06:18:13.485Z,99055.48
2018-10-03T06:20:41.969Z,99053.55
2018-10-03T06:23:10.352Z,99062.31
2018-10-03T06:25:38.736Z,99067.69
2018-10-03T06:28:07.089Z,99076.38
2018-10-03T06:30:35.608Z,99076.53
2018-10-03T06:33:03.939Z,99079.62
2018-10-03T06:35:32.680Z,99084.25
2018-10-03T06:38:01.148Z,99085.64
2018-10-03T06:40:29.430Z,99080.64
2018-10-03T06:42:58.536Z,99091.56
2018-10-03T06:45:27.225Z,99099.04
2018-10-03T06:47:56.595Z,99101.25
2018-10-03T06:50:25.827Z,99102.64
2018-10-03T06:52:54.252Z,99110.93
2018-10-03T06:55:22.646Z,99118.52
2018-10-03T06:57:50.960Z,99118.36
2018-10-03T07:00:19.511Z,99118.80
2018-10-03T07:02:47.930Z,99116.48
2018-10-03T07:05:16.496Z,99113.41
2018-10-03T07:07:44.857Z,99118.20
2018-10-03T07:10:13.432Z,99125.50
2018-10-03T07:12:41.899Z,99130.72
2018-10-03T07:15:10.495Z,99125.69
2018-10-03T07:17:38.904Z,99136.56
2018-10-03T07:20:07.527Z,99131.84
2018-10-03T07:22:35.876Z,99129.83
2018-10-03T07:25:04.430Z,99143.62
2018-10-03T07:27:32.909Z,99144.11
2018-10-03T07:30:01.366Z,99148.21
2018-10-03T07:32:30.426Z,99157.19
2018-10-03T07:34:58.813Z,99157.11
2018-10-03T07:37:27.118Z,99169.60
2018-10-03T07:39:56.906Z,99157.86
2018-10-03T07:42:25.181Z,99151.55
2018-10-03T07:44:53.488Z,99159.12
2018-10-03T07:47:21.887Z,99164.11
2018-10-03T07:49:50.359Z,99174.77
2018-10-03T07:52:18.640Z,99174.17
2018-10-03T07:54:46.939Z,99176.31
2018-10-03T07:57:15.274Z,99171.83
2018-10-03T07:59:43.553Z,99166.96
2018-10-03T08:02:11.897Z,99168.46
2018-10-03T08:04:40.389Z,99156.61
2018-10-03T08:07:08.631Z,99145.09
2018-10-03T08:09:36.923Z,99145.69
2018-10-03T08:12:05.333Z,99139.34
2018-10-03T08:14:33.633Z,99146.66
2018-10-03T08:17:01.958Z,99150.94
2018-10-03T08:19:30.420Z,99146.06
2018-10-03T08:21:58.724Z,99153.44
2018-10-03T08:24:27.168Z,99151.28
2018-10-03T08:26:55.454Z,99156.80
2018-10-03T08:29:23.863Z,99159.11
2018-10-03T08:31:52.260Z,99173.78
2018-10-03T08:34:21.212Z,99178.66
2018-10-03T08:36:49.553Z,99185.87
2018-10-03T08:39:18.047Z,99182.75
2018-10-03T08:41:46.423Z,99191.31
2018-10-03T08:44:14.703Z,99193.91
2018-10-03T08:46:43.166Z,99196.80
2018-10-03T08:49:11.469Z,99193.80
2018-10-03T08:51:39.747Z,99191.13
2018-10-03T08:54:08.003Z,99198.11
2018-10-03T08:56:36.344Z,99194.28
2018-10-03T08:59:04.637Z,99192.15
2018-10-03T09:01:33.124Z,99182.72
2018-10-03T09:04:01.772Z,99182.92
2018-10-03T09:06:30.088Z,99178.35
2018-10-03T09:08:58.391Z,99176.34
2018-10-03T09:11:27.223Z,99175.16
2018-10-03T09:13:55.737Z,99172.23
2018-10-03T09:16:24.247Z,99173.14
2018-10-03T09:18:52.532Z,99179.80
2018-10-03T09:21:20.888Z,99187.89
2018-10-03T09:23:49.264Z,99188.05
2018-10-03T09:26:17.565Z,99183.70
2018-10-03T09:28:45.889Z,99185.38
2018-10-03T09:31:14.892Z,99182.45
2018-10-03T09:33:43.317Z,99193.23
2018-10-03T09:36:11.743Z,99192.73
2018-10-03T09:38:40.053Z,99190.61
2018-10-03T09:41:08.344Z,99187.13
2018-10-03T09:43:36.651Z,99183.17
2018-10-03T09:46:04.983Z,99184.19
2018-10-03T09:48:33.282Z,99190.05
2018-10-03T09:51:02.456Z,99197.17
2018-10-03T09:53:31.145Z,99200.63
2018-10-03T09:55:59.438Z,99199.33
2018-10-03T09:58:27.909Z,99199.73
2018-10-03T10:01:01.784Z,99202.19
2018-10-03T10:03:30.453Z,99198.70
2018-10-03T10:05:58.794Z,99198.11
2018-10-03T10:08:27.371Z,99199.07
2018-10-03T10:10:55.730Z,99194.12
2018-10-03T10:13:24.250Z,99215.88
2018-10-03T10:15:52.664Z,99214.30
2018-10-03T10:18:21.063Z,99208.30
2018-10-03T10:20:49.908Z,99208.13
2018-10-03T10:23:18.290Z,99216.97
2018-10-03T10:25:46.588Z,99221.05
2018-10-03T10:28:15.016Z,99214.97
2018-10-03T10:30:43.413Z,99217.65
2018-10-03T10:33:12.092Z,99228.59
2018-10-03T10:35:40.456Z,99226.16
2018-10-03T10:38:08.891Z,99222.46
2018-10-03T10:40:38.681Z,99227.50
2018-10-03T10:43:07.377Z,99225.51
2018-10-03T10:45:35.748Z,99228.56
2018-10-03T10:48:04.393Z,99224.84
2018-10-03T10:50:32.666Z,99227.84
2018-10-03T10:53:00.968Z,99230.12
2018-10-03T10:55:29.492Z,99223.30
2018-10-03T10:57:57.833Z,99224.77
2018-10-03T11:00:27.545Z,99225.51
2018-10-03T11:02:56.156Z,99227.88
2018-10-03T11:05:24.640Z,99225.97
2018-10-03T11:07:53.451Z,99220.83
2018-10-03T11:10:21.889Z,99219.73
2018-10-03T11:12:50.373Z,99223.78
2018-10-03T11:15:19.421Z,99224.25
2018-10-03T11:17:47.685Z,99214.27
2018-10-03T11:20:16.335Z,99214.02
2018-10-03T11:22:44.690Z,99220.45
2018-10-03T11:25:13.106Z,99217.36
2018-10-03T11:27:41.598Z,99222.22
2018-10-03T11:30:09.789Z,99216.08
2018-10-03T11:32:38.283Z,99212.97
2018-10-03T11:35:06.954Z,99216.61
2018-10-03T11:37:35.393Z,99218.84
2018-10-03T11:40:03.898Z,99218.91
2018-10-03T11:42:32.196Z,99216.72
2018-10-03T11:45:00.602Z,99215.33
2018-10-03T11:47:29.000Z,99225.12
2018-10-03T11:49:57.353Z,99216.91
2018-10-03T11:52:26.546Z,99213.83
2018-10-03T11:54:54.923Z,99225.63
2018-10-03T11:57:23.339Z,99223.70
2018-10-03T11:59:51.724Z,99215.38
2018-10-03T12:02:20.070Z,99217.95
2018-10-03T12:04:48.331Z,99222.42
2018-10-03T12:07:16.729Z,99223.08
2018-10-03T12:09:45.224Z,99219.60
2018-10-03T12:12:13.547Z,99228.32
2018-10-03T12:14:42.007Z,99230.40
2018-10-03T12:17:10.426Z,99227.98
2018-10-03T12:19:38.715Z,99230.34
2018-10-03T12:22:07.110Z,99235.99
2018-10-03T12:24:35.562Z,99224.06
2018-10-03T12:27:03.917Z,99231.16
2018-10-03T12:29:32.374Z,99233.97
2018-10-03T12:32:00.756Z,99235.78
2018-10-03T12:34:29.113Z,99228.30
2018-10-03T12:36:57.471Z,99227.98
2018-10-03T12:39:25.847Z,99228.66
2018-10-03T12:41:54.506Z,99228.80
2018-10-03T12:44:22.812Z,99226.56
2018-10-03T12:46:51.162Z,99231.58
2018-10-03T12:49:19.474Z,99222.20
2018-10-03T12:51:47.781Z,99227.99
2018-10-03T12:54:16.098Z,99227.23
2018-10-03T12:56:44.632Z,99221.56
2018-10-03T12:59:13.007Z,99224.70
2018-10-03T13:01:41.521Z,99224.33
2018-10-03T13:04:10.050Z,99231.32
2018-10-03T13:06:38.359Z,99227.42
2018-10-03T13:09:10.112Z,99220.09
2018-10-03T13:11:38.369Z,99216.54
2018-10-03T13:14:07.046Z,99214.73
2018-10-03T13:16:35.320Z,99214.14
2018-10-03T13:19:03.672Z,99209.67
2018-10-03T13:21:32.163Z,99211.58
2018-10-03T13:24:00.489Z,99216.48
2018-10-03T13:26:28.742Z,99218.28
2018-10-03T13:28:57.314Z,99214.67
2018-10-03T13:31:25.720Z,99212.35
2018-10-03T13:33:54.050Z,99221.73
2018-10-03T13:36:22.544Z,99216.89
2018-10-03T13:38:50.929Z,99216.33
2018-10-03T13:41:19.199Z,99214.44
2018-10-03T13:43:47.599Z,99216.64
2018-10-03T13:46:15.894Z,99211.30
2018-10-03T13:48:44.213Z,99203.40
2018-10-03T13:51:12.664Z,99211.39
2018-10-03T13:53:41.112Z,99209.27
2018-10-03T13:56:09.623Z,99208.42
2018-10-03T13:58:37.962Z,99200.36
2018-10-03T14:01:06.352Z,99200.55
2018-10-03T14:03:35.038Z,99194.47
2018-10-03T14:06:03.370Z,99201.17
2018-10-03T14:08:31.701Z,99201.27
2018-10-03T14:11:00.012Z,99203.77
2018-10-03T14:13:28.300Z,99203.12
2018-10-03T14:15:56.637Z,99211.52
2018-10-03T14:18:25.216Z,99210.95
2018-10-03T14:20:53.501Z,99207.06
2018-10-03T14:23:22.077Z,99205.78
2018-10-03T14:25:50.393Z,99207.70
2018-10-03T14:28:19.447Z,99216.23
2018-10-03T14:30:48.150Z,99219.53
2018-10-03T14:33:16.510Z,99202.78
2018-10-03T14:35:44.907Z,99208.94
2018-10-03T14:38:13.252Z,99210.86
2018-10-03T14:40:41.604Z,99205.47
2018-10-03T14:43:09.869Z,99206.95
2018-10-03T14:45:38.218Z,99211.56
2018-10-03T14:48:06.500Z,99209.83
2018-10-03T14:50:34.929Z,99204.75
2018-10-03T14:53:03.384Z,99201.45
2018-10-03T14:55:31.824Z,99211.00
2018-10-03T14:58:00.225Z,99208.98
2018-10-03T15:00:28.604Z,99201.61
2018-10-03T15:02:56.876Z,99201.60
2018-10-03T15:05:25.341Z,99199.22
2018-10-03T15:07:53.717Z,99203.97
2018-10-03T15:10:22.141Z,99194.69
2018-10-03T15:12:50.485Z,99198.22
2018-10-03T15:15:18.852Z,99202.31
2018-10-03T15:17:47.207Z,99199.44
2018-10-03T15:20:15.649Z,99201.42
2018-10-03T15:22:43.981Z,99202.45
2018-10-03T15:25:12.379Z,99207.23
2018-10-03T15:27:40.783Z,99206.97
2018-10-03T15:30:09.241Z,99205.25
2018-10-03T15:32:37.596Z,99208.16
2018-10-03T15:35:05.954Z,99199.69
2018-10-03T15:37:34.989Z,99212.46
2018-10-03T15:40:03.387Z,99203.89
2018-10-03T15:42:31.715Z,99216.74
2018-10-03T15:45:00.097Z,99216.45
2018-10-03T15:47:28.413Z,99228.89
2018-10-03T15:49:56.892Z,99227.66
2018-10-03T15:52:25.194Z,99231.63
2018-10-03T15:54:53.536Z,99235.66
2018-10-03T15:57:21.823Z,99237.84
2018-10-03T15:59:50.119Z,99238.20
2018-10-03T16:02:18.600Z,99234.70
2018-10-03T16:04:46.932Z,99242.92
2018-10-03T16:07:15.276Z,99243.90
2018-10-03T16:09:43.724Z,99247.75
2018-10-03T16:12:12.120Z,99244.56
2018-10-03T16:14:40.383Z,99247.33
2018-10-03T16:17:08.693Z,99254.20
2018-10-03T16:19:37.186Z,99256.36
2018-10-03T16:22:05.526Z,99252.92
2018-10-03T16:24:33.882Z,99257.53
2018-10-03T16:27:02.143Z,99256.18
2018-10-03T16:29:30.463Z,99261.80
2018-10-03T16:31:58.769Z,99268.70
2018-10-03T16:34:27.078Z,99271.58
2018-10-03T16:36:55.544Z,99273.55
2018-10-03T16:39:23.853Z,99263.81
2018-10-03T16:41:52.153Z,99270.47
2018-10-03T16:44:20.473Z,99266.30
2018-10-03T16:46:48.776Z,99279.47
2018-10-03T16:49:17.137Z,99276.18
2018-10-03T16:51:45.508Z,99278.77
2018-10-03T16:54:14.125Z,99279.16
2018-10-03T16:56:42.440Z,99280.03
2018-10-03T16:59:10.743Z,99282.52
2018-10-03T17:01:39.636Z,99292.49
2018-10-03T17:04:08.238Z,99292.39
2018-10-03T17:06:36.622Z,99293.59
2018-10-03T17:09:06.644Z,99293.28
2018-10-03T17:11:35.356Z,99299.82
2018-10-03T17:14:14.825Z,99290.80
2018-10-03T17:16:43.092Z,99285.99
2018-10-03T17:19:11.424Z,99295.72
2018-10-03T17:21:39.728Z,99293.01
2018-10-03T17:24:08.372Z,99297.25
2018-10-03T17:26:36.871Z,99297.45
2018-10-03T17:29:05.158Z,99299.46
2018-10-03T17:31:33.526Z,99304.07
2018-10-03T17:34:02.012Z,99309.11
2018-10-03T17:36:31.019Z,99309.88
2018-10-03T17:39:00.160Z,99304.92
2018-10-03T17:41:28.792Z,99298.07
2018-10-03T17:43:57.307Z,99305.84
2018-10-03T17:46:25.858Z,99301.70
2018-10-03T17:48:54.486Z,99303.79
2018-10-03T17:51:22.913Z,99307.15
2018-10-03T17:53:51.341Z,99302.48
2018-10-03T17:56:20.066Z,99296.97
2018-10-03T17:58:48.420Z,99306.48
2018-10-03T18:01:16.865Z,99310.70
2018-10-03T18:03:45.257Z,99312.44
2018-10-03T18:06:13.704Z,99310.10
2018-10-03T18:08:42.399Z,99310.17
2018-10-03T18:11:11.174Z,99310.02
2018-10-03T18:13:39.589Z,99315.01
2018-10-03T18:16:07.955Z,99313.90
2018-10-03T18:18:36.864Z,99318.38
2018-10-03T18:21:05.386Z,99319.38
2018-10-03T18:23:33.706Z,99324.75
2018-10-03T18:26:02.132Z,99325.74
2018-10-03T18:28:30.416Z,99331.34
2018-10-03T18:30:58.927Z,99333.39
2018-10-03T18:33:27.250Z,99332.60
2018-10-03T18:35:55.676Z,99330.59
2018-10-03T18:38:24.153Z,99330.18
2018-10-03T18:40:52.760Z,99340.53
2018-10-03T18:43:21.078Z,99336.33
2018-10-03T18:45:49.619Z,99348.32
2018-10-03T18:48:17.987Z,99349.51
2018-10-03T18:50:46.578Z,99353.48
2018-10-03T18:53:15.000Z,99354.48
2018-10-03T18:55:43.379Z,99350.96
2018-10-03T18:58:11.874Z,99353.80
2018-10-03T19:00:40.454Z,99357.24
2018-10-03T19:03:08.856Z,99362.22
2018-10-03T19:05:37.458Z,99366.72
2018-10-03T19:08:05.823Z,99369.59
2018-10-03T19:10:34.228Z,99374.75
2018-10-03T19:13:02.588Z,99375.47
2018-10-03T19:15:30.945Z,99382.17
2018-10-03T19:17:59.452Z,99377.50
2018-10-03T19:20:29.245Z,99379.22
2018-10-03T19:35:26.777Z,99388.11
2018-10-03T19:38:20.935Z,99384.74
2018-10-03T19:43:54.237Z,99389.49
2018-10-03T19:46:23.438Z,99392.48
2018-10-03T19:48:53.673Z,99395.20
2018-10-03T19:51:23.432Z,99400.53
2018-10-03T19:53:56.366Z,99396.30
2018-10-03T19:56:27.013Z,99390.78
2018-10-03T19:58:56.308Z,99394.83
2018-10-03T20:01:25.804Z,99400.56
2018-10-03T20:03:54.959Z,99398.84
2018-10-03T20:06:43.334Z,99398.45
2018-10-03T20:09:18.027Z,99403.68
2018-10-03T20:11:47.051Z,99403.91
2018-10-03T20:14:17.733Z,99405.36
2018-10-03T20:16:46.861Z,99406.45
2018-10-03T20:19:15.557Z,99403.95
2018-10-03T20:21:44.432Z,99404.13
2018-10-03T20:24:18.908Z,99406.92
2018-10-03T20:26:49.590Z,99411.76
2018-10-03T20:29:19.680Z,99412.77
2018-10-03T20:32:00.995Z,99423.04
2018-10-03T20:34:30.154Z,99421.34
2018-10-03T20:37:00.562Z,99425.40
2018-10-03T20:39:29.443Z,99422.37
2018-10-03T20:41:58.980Z,99426.20
2018-10-03T20:44:27.760Z,99421.33
2018-10-03T20:46:56.347Z,99420.58
2018-10-03T20:49:25.370Z,99417.16
2018-10-03T20:51:54.005Z,99418.29
2018-10-03T20:54:24.810Z,99416.82
2018-10-03T20:56:53.794Z,99413.84
2018-10-03T20:59:27.444Z,99411.44
2018-10-03T21:01:57.244Z,99413.56
2018-10-03T21:04:25.933Z,99413.31
2018-10-03T21:06:54.746Z,99413.64
2018-10-03T21:09:25.578Z,99418.25
2018-10-03T21:11:54.780Z,99414.69
2018-10-03T21:14:29.644Z,99421.33
2018-10-03T21:16:58.011Z,99423.16
2018-10-03T21:19:26.471Z,99424.83
2018-10-03T21:21:55.168Z,99427.84
2018-10-03T21:24:24.799Z,99422.27
2018-10-03T21:26:55.434Z,99427.73
2018-10-03T21:29:25.170Z,99432.39
2018-10-03T21:31:54.573Z,99432.14
2018-10-03T21:34:24.398Z,99433.73
2018-10-03T21:36:55.471Z,99439.95
2018-10-03T21:39:32.505Z,99437.39
2018-10-03T21:42:11.285Z,99442.14
2018-10-03T21:44:40.743Z,99444.08
2018-10-03T21:47:09.559Z,99442.82
2018-10-03T21:49:38.071Z,99445.45
2018-10-03T21:52:06.842Z,99438.92
2018-10-03T21:54:59.180Z,99436.44
2018-10-03T21:57:27.926Z,99438.20
2018-10-03T22:00:04.325Z,99436.64
2018-10-03T22:02:32.928Z,99436.56
2018-10-03T22:05:16.017Z,99444.00
2018-10-03T22:07:44.583Z,99442.19
2018-10-03T22:10:13.275Z,99444.41
2018-10-03T22:12:41.869Z,99443.42
2018-10-03T22:15:28.406Z,99449.16
2018-10-03T22:17:57.021Z,99437.87
2018-10-03T22:20:25.844Z,99435.69
2018-10-03T22:25:47.037Z,99430.84
2018-10-03T22:28:15.584Z,99433.47
2018-10-03T22:30:44.076Z,99429.00
2018-10-03T22:33:12.649Z,99427.51
2018-10-03T22:35:41.198Z,99434.66
2018-10-03T22:38:09.862Z,99429.67
2018-10-03T22:40:38.462Z,99435.28
2018-10-03T22:43:06.754Z,99436.94
2018-10-03T22:45:35.052Z,99431.25
2018-10-03T22:48:03.348Z,99437.19
2018-10-03T22:50:31.678Z,99437.85
2018-10-03T22:53:00.207Z,99437.09
2018-10-03T22:55:28.660Z,99432.84
2018-10-03T22:58:01.716Z,99430.98
2018-10-03T23:00:30.192Z,99429.95
2018-10-03T23:02:58.645Z,99435.70
2018-10-03T23:05:27.244Z,99432.58
2018-10-03T23:07:55.618Z,99436.93
2018-10-03T23:10:27.479Z,99438.98
2018-10-03T23:12:55.980Z,99437.27
2018-10-03T23:15:24.682Z,99434.75
2018-10-03T23:17:53.328Z,99437.95
2018-10-03T23:20:21.898Z,99433.38
2018-10-03T23:22:50.490Z,99439.66
2018-10-03T23:25:19.238Z,99438.56
2018-10-03T23:28:09.988Z,99434.08
2018-10-03T23:30:38.577Z,99442.86
2018-10-03T23:33:30.386Z,99445.44
2018-10-03T23:35:59.001Z,99444.61
2018-10-03T23:38:27.449Z,99447.02
2018-10-03T23:40:56.075Z,99444.80
2018-10-03T23:43:24.603Z,99448.91
2018-10-03T23:45:53.209Z,99454.48
2018-10-03T23:48:21.841Z,99451.79
2018-10-03T23:50:50.471Z,99453.50
2018-10-03T23:56:30.473Z,99458.16
2018-10-03T23:58:59.012Z,99459.96
